Grand Junction, CO

10:25 PM MDT on May 24, 2015 (GMT -0600)
Garfield County Regional | | Change Station
CLOSE
Current Station
Airport
Location: Rifle,
Elevation: 5541 ft
Nearby Weather Stations

Elev 5541 ft 39.52 °N, 107.73 °W | Updated 15 minutes ago

Overcast
Overcast
46 °F
Feels Like 45 °F
N
4
Wind Variable Wind from SE

Today
High -- | Low -- °F
--% Chance of Precip.
Yesterday
High -- | Low -- °F
Precip. -- in
5:54 AM 8:28 PM
Waxing Crescent, 45% visible
Pressure 29.98 in
Visibility 8.0 miles
Clouds Few 900 ft
Mostly Cloudy 1600 ft
Overcast 5000 ft
Windchill 45 °F
Dew Point 43 °F
Humidity 89%
Rainfall 0.33 in
Snow Depth Not available.
UV 0 out of 12
Pollen 7.00 out of 12
Air Quality Not available.
Flu Activity Sporadic
SPECI KRIL 250410Z AUTO 14003KT 8SM -RA FEW009 BKN016 OVC050 08/06 A2998 RMK AO2 P0001 T00780061

More Conditions Fewer Conditions

Pressure 29.98 in
Visibility 8.0 miles
Clouds Few 900 ft
Mostly Cloudy 1600 ft
Overcast 5000 ft
Windchill 45 °F
Dew Point 43 °F
Humidity 89%
Rainfall 0.33 in
Snow Depth Not available.
UV 0 out of 12
Pollen 7.00 out of 12
Air Quality Not available.
Flu Activity Sporadic
SPECI KRIL 250410Z AUTO 14003KT 8SM -RA FEW009 BKN016 OVC050 08/06 A2998 RMK AO2 P0001 T00780061

More Conditions Fewer Conditions

10-Day Weather Forecast

Almanac

Astronomy

May. 24, 2015 Rise Set
Actual Time
Civil Twilight
Nautical Twilight
Astronomical Twilight
Moon
Length of Visible Light
Length of Day
Tomorrow will be .
, % of the Moon is Illuminated

Today's Extremes

State Highs State Lows

Community

WunderPhotos

Upload Photos

1,823,953 photos uploaded!

WunderBlogs® & News

Nearby

Air Quality

  Air Quality AQ Index Pollutant
Not available.

Snow Depth

Station Depth Elevation

Earthquake Activity

City Distance Mag. Time & Date
Minimum magnitude displayed is 2.5.

Coastal Water Temperatures

Place Temperature

Stations

Nearby Weather Stations

Station Location Temp. Windchill Dew Point Humidity Wind Precip. Elev Updated Type